KBLF/BLF METAR and TAF weather

Enter ICAO airport designator
Station Type Date Time Source
KBLF METAR 2018/12/13 15:52 UTC NOAA

KBLF 131552Z AUTO 23004KT 10SM OVC025 05/M06 A3023 RMK AO2 SLP241 T00501056


Station Type Date Time Source
KBLF Decoded METAR 2018/12/13 15:52 UTC NOAA

BLUEFIELD MERCER COUNTY AIRPORT , WV, United States (KBLF) 37-18N 081-12W 873M
Dec 13, 2018 - 10:52 AM EST / 2018.12.13 1552 UTC
Wind: from the SW (230 degrees) at 5 MPH (4 KT):0
Visibility: 10 mile(s):0
Sky conditions: overcast
Temperature: 41.0 F (5.0 C)
Dew Point: 21.9 F (-5.6 C)
Relative Humidity: 46%
Pressure (altimeter): 30.23 in. Hg (1023 hPa)
ob: KBLF 131552Z AUTO 23004KT 10SM OVC025 05/M06 A3023 RMK AO2 SLP241 T00501056
cycle: 16

Station Type Date Time Source
KBLF TAF 2018/12/13 12:36 UTC NOAA

TAF KBLF 131133Z 1312/1412 24007KT P6SM OVC030
FM131600 24006KT P6SM OVC050
FM132100 16005KT P6SM BKN070
FM140800 14008KT P6SM BKN025


Example: see airport list